createdAt,value
2024-01-26T00:00:00.827Z,98236.69
2024-01-26T00:02:27.538Z,98228.88
2024-01-26T00:04:54.604Z,98219.75
2024-01-26T00:07:21.618Z,98235.50
2024-01-26T00:09:49.242Z,98242.19
2024-01-26T00:12:15.901Z,98241.44
2024-01-26T00:14:42.607Z,98240.03
2024-01-26T00:17:09.242Z,98241.19
2024-01-26T00:19:35.931Z,98241.50
2024-01-26T00:22:02.696Z,98246.91
2024-01-26T00:24:29.501Z,98251.19
2024-01-26T00:26:56.166Z,98230.63
2024-01-26T00:29:30.140Z,98236.94
2024-01-26T00:31:56.785Z,98239.13
2024-01-26T00:34:23.562Z,98243.97
2024-01-26T00:36:50.349Z,98251.94
2024-01-26T00:39:16.972Z,98236.88
2024-01-26T00:41:43.653Z,98259.63
2024-01-26T00:44:10.300Z,98260.06
2024-01-26T00:46:36.936Z,98241.66
2024-01-26T00:49:04.096Z,98263.22
2024-01-26T00:51:30.970Z,98267.16
2024-01-26T00:53:57.593Z,98258.31
2024-01-26T00:56:24.287Z,98254.25
2024-01-26T00:58:50.912Z,98268.28
2024-01-26T01:01:17.579Z,98272.66
2024-01-26T01:03:44.324Z,98275.44
2024-01-26T01:06:11.014Z,98275.56
2024-01-26T01:08:37.735Z,98278.44
2024-01-26T01:11:04.437Z,98275.97
2024-01-26T01:13:31.091Z,98279.25
2024-01-26T01:15:57.715Z,98276.41
2024-01-26T01:18:24.538Z,98289.09
2024-01-26T01:20:51.295Z,98291.56
2024-01-26T01:23:17.986Z,98295.75
2024-01-26T01:25:44.741Z,98285.19
2024-01-26T01:28:12.234Z,98291.41
2024-01-26T01:30:38.987Z,98290.13
2024-01-26T01:33:05.825Z,98292.50
2024-01-26T01:35:32.568Z,98298.19
2024-01-26T01:37:59.219Z,98294.88
2024-01-26T01:40:25.903Z,98293.84
2024-01-26T01:42:52.527Z,98294.38
2024-01-26T01:45:19.162Z,98290.38
2024-01-26T01:47:45.912Z,98298.84
2024-01-26T01:50:12.585Z,98295.94
2024-01-26T01:52:39.208Z,98287.25
2024-01-26T01:55:06.055Z,98287.88
2024-01-26T01:57:32.689Z,98296.47
2024-01-26T01:59:59.327Z,98287.56
2024-01-26T02:02:26.048Z,98292.81
2024-01-26T02:04:52.910Z,98298.41
2024-01-26T02:07:19.595Z,98291.56
2024-01-26T02:09:46.281Z,98293.34
2024-01-26T02:12:12.917Z,98285.38
2024-01-26T02:14:39.601Z,98286.31
2024-01-26T02:17:06.300Z,98304.66
2024-01-26T02:19:32.956Z,98294.00
2024-01-26T02:21:59.597Z,98292.44
2024-01-26T02:24:26.271Z,98293.47
2024-01-26T02:26:52.913Z,98292.94
2024-01-26T02:29:19.595Z,98289.03
2024-01-26T02:31:46.283Z,98296.88
2024-01-26T02:34:13.142Z,98300.56
2024-01-26T02:36:39.887Z,98302.47
2024-01-26T02:39:06.754Z,98302.56
2024-01-26T02:41:33.446Z,98303.50
2024-01-26T02:44:00.107Z,98310.44
2024-01-26T02:46:26.801Z,98310.56
2024-01-26T02:48:53.506Z,98301.16
2024-01-26T02:51:20.182Z,98302.78
2024-01-26T02:53:46.941Z,98299.63
2024-01-26T02:56:13.622Z,98306.06
2024-01-26T02:58:40.256Z,98309.16
2024-01-26T03:01:06.976Z,98306.44
2024-01-26T03:03:33.692Z,98299.88
2024-01-26T03:06:00.417Z,98300.91
2024-01-26T03:08:27.182Z,98301.19
2024-01-26T03:10:53.824Z,98305.94
2024-01-26T03:13:20.454Z,98304.31
2024-01-26T03:15:47.136Z,98308.78
2024-01-26T03:18:13.866Z,98303.41
2024-01-26T03:20:40.578Z,98294.31
2024-01-26T03:23:07.276Z,98285.69
2024-01-26T03:25:33.917Z,98302.31
2024-01-26T03:28:00.557Z,98304.13
2024-01-26T03:30:27.258Z,98313.50
2024-01-26T03:32:54.055Z,98323.19
2024-01-26T03:35:20.741Z,98315.78
2024-01-26T03:37:47.430Z,98316.88
2024-01-26T03:40:14.058Z,98314.06
2024-01-26T03:42:40.669Z,98313.31
2024-01-26T03:45:07.459Z,98321.66
2024-01-26T03:47:34.244Z,98325.78
2024-01-26T03:50:00.990Z,98326.59
2024-01-26T03:52:27.695Z,98329.78
2024-01-26T03:54:54.312Z,98346.22
2024-01-26T03:57:20.939Z,98333.59
2024-01-26T03:59:47.649Z,98332.56
2024-01-26T04:02:14.270Z,98341.38
2024-01-26T04:04:40.892Z,98341.16
2024-01-26T04:07:07.664Z,98331.69
2024-01-26T04:09:34.383Z,98335.75
2024-01-26T04:12:01.070Z,98333.91
2024-01-26T04:14:27.809Z,98337.75
2024-01-26T04:16:54.457Z,98334.09
2024-01-26T04:19:21.259Z,98331.88
2024-01-26T04:21:48.138Z,98330.03
2024-01-26T04:24:14.829Z,98332.34
2024-01-26T04:26:41.530Z,98343.66
2024-01-26T04:29:08.224Z,98345.38
2024-01-26T04:31:34.829Z,98331.25
2024-01-26T04:34:01.599Z,98335.88
2024-01-26T04:36:28.350Z,98334.13
2024-01-26T04:38:55.053Z,98329.59
2024-01-26T04:41:21.697Z,98335.69
2024-01-26T04:43:48.400Z,98318.66
2024-01-26T04:46:15.077Z,98323.16
2024-01-26T04:48:41.794Z,98328.66
2024-01-26T04:51:08.674Z,98322.06
2024-01-26T04:53:35.388Z,98336.34
2024-01-26T04:56:02.039Z,98329.03
2024-01-26T04:58:28.738Z,98328.66
2024-01-26T05:00:55.397Z,98323.38
2024-01-26T05:03:22.197Z,98334.97
2024-01-26T05:05:49.040Z,98328.81
2024-01-26T05:08:15.690Z,98336.22
2024-01-26T05:10:42.309Z,98333.75
2024-01-26T05:13:09.018Z,98340.88
2024-01-26T05:15:35.653Z,98347.78
2024-01-26T05:18:02.407Z,98348.00
2024-01-26T05:20:29.237Z,98337.22
2024-01-26T05:22:55.940Z,98338.38
2024-01-26T05:25:22.575Z,98335.19
2024-01-26T05:27:49.364Z,98334.47
2024-01-26T05:30:16.040Z,98333.66
2024-01-26T05:32:42.856Z,98330.34
2024-01-26T05:35:09.617Z,98338.28
2024-01-26T05:37:36.244Z,98348.06
2024-01-26T05:40:02.924Z,98352.56
2024-01-26T05:42:29.672Z,98347.13
2024-01-26T05:44:56.390Z,98354.81
2024-01-26T05:47:23.052Z,98353.50
2024-01-26T05:49:49.732Z,98358.00
2024-01-26T05:52:16.360Z,98355.25
2024-01-26T05:54:43.048Z,98344.97
2024-01-26T05:57:09.759Z,98344.06
2024-01-26T05:59:36.460Z,98345.47
2024-01-26T06:02:03.073Z,98342.16
2024-01-26T06:04:29.904Z,98343.22
2024-01-26T06:06:56.641Z,98354.44
2024-01-26T06:09:23.450Z,98350.78
2024-01-26T06:11:50.175Z,98348.69
2024-01-26T06:14:16.847Z,98356.56
2024-01-26T06:16:43.477Z,98357.41
2024-01-26T06:19:10.330Z,98351.84
2024-01-26T06:21:37.139Z,98355.63
2024-01-26T06:24:03.978Z,98352.53
2024-01-26T06:26:30.844Z,98354.91
2024-01-26T06:28:57.470Z,98357.53
2024-01-26T06:31:24.113Z,98360.38
2024-01-26T06:33:52.622Z,98366.63
2024-01-26T06:36:19.555Z,98369.34
2024-01-26T06:38:46.257Z,98372.53
2024-01-26T06:41:12.963Z,98361.63
2024-01-26T06:43:39.642Z,98369.69
2024-01-26T06:46:06.272Z,98371.69
2024-01-26T06:48:33.056Z,98379.50
2024-01-26T06:50:59.751Z,98378.91
2024-01-26T06:53:26.390Z,98384.84
2024-01-26T06:55:53.994Z,98385.75
2024-01-26T06:58:20.787Z,98371.09
2024-01-26T07:00:47.494Z,98373.59
2024-01-26T07:03:14.266Z,98367.34
2024-01-26T07:05:41.084Z,98366.25
2024-01-26T07:08:07.759Z,98363.19
2024-01-26T07:10:34.439Z,98364.38
2024-01-26T07:13:01.075Z,98365.56
2024-01-26T07:15:27.855Z,98362.50
2024-01-26T07:17:54.648Z,98369.47
2024-01-26T07:20:21.312Z,98383.31
2024-01-26T07:22:47.938Z,98394.19
2024-01-26T07:25:14.646Z,98410.69
2024-01-26T07:27:41.286Z,98415.25
2024-01-26T07:30:07.952Z,98402.63
2024-01-26T07:32:34.733Z,98394.03
2024-01-26T07:35:01.478Z,98395.56
2024-01-26T07:37:28.119Z,98398.91
2024-01-26T07:39:54.808Z,98408.84
2024-01-26T07:42:24.690Z,98402.66
2024-01-26T07:44:51.598Z,98424.44
2024-01-26T07:47:18.357Z,98431.75
2024-01-26T07:49:45.091Z,98428.19
2024-01-26T07:52:11.790Z,98424.19
2024-01-26T07:54:38.483Z,98421.97
2024-01-26T07:57:05.145Z,98423.44
2024-01-26T07:59:31.833Z,98413.16
2024-01-26T08:01:58.532Z,98418.03
2024-01-26T08:04:25.298Z,98406.72
2024-01-26T08:06:52.284Z,98404.88
2024-01-26T08:09:20.208Z,98405.44
2024-01-26T08:11:47.067Z,98395.16
2024-01-26T08:14:13.843Z,98400.13
2024-01-26T08:16:40.571Z,98400.78
2024-01-26T08:19:07.617Z,98405.56
2024-01-26T08:21:34.372Z,98398.56
2024-01-26T08:24:01.398Z,98402.41
2024-01-26T08:26:28.133Z,98403.00
2024-01-26T08:28:54.804Z,98398.34
2024-01-26T08:31:21.499Z,98401.03
2024-01-26T08:33:48.411Z,98398.88
2024-01-26T08:36:15.336Z,98395.88
2024-01-26T08:38:42.252Z,98396.31
2024-01-26T08:41:09.137Z,98411.41
2024-01-26T08:43:35.853Z,98409.38
2024-01-26T08:46:02.692Z,98401.34
2024-01-26T08:48:29.418Z,98398.25
2024-01-26T08:50:56.130Z,98393.81
2024-01-26T08:53:22.834Z,98405.72
2024-01-26T08:55:49.464Z,98400.41
2024-01-26T08:58:16.110Z,98398.38
2024-01-26T09:00:42.835Z,98391.34
2024-01-26T09:03:09.546Z,98398.84
2024-01-26T09:05:36.350Z,98400.19
2024-01-26T09:08:03.098Z,98397.38
2024-01-26T09:10:29.728Z,98385.25
2024-01-26T09:12:56.353Z,98391.38
2024-01-26T09:15:23.098Z,98382.28
2024-01-26T09:17:49.830Z,98388.56
2024-01-26T09:20:16.741Z,98397.28
2024-01-26T09:22:43.500Z,98387.28
2024-01-26T09:25:10.194Z,98387.91
2024-01-26T09:27:36.865Z,98392.47
2024-01-26T09:30:03.598Z,98366.09
2024-01-26T09:32:30.248Z,98385.78
2024-01-26T09:34:56.989Z,98387.34
2024-01-26T09:37:23.762Z,98379.38
2024-01-26T09:39:50.415Z,98377.94
2024-01-26T09:42:17.090Z,98373.66
2024-01-26T09:44:43.870Z,98366.41
2024-01-26T09:47:10.546Z,98369.75
2024-01-26T09:49:37.215Z,98371.00
2024-01-26T09:52:04.185Z,98375.69
2024-01-26T09:54:30.906Z,98373.13
2024-01-26T09:56:57.530Z,98358.28
2024-01-26T09:59:24.265Z,98357.16
2024-01-26T10:01:50.899Z,98357.34
2024-01-26T10:04:17.634Z,98353.63
2024-01-26T10:06:44.449Z,98359.19
2024-01-26T10:09:11.188Z,98357.50
2024-01-26T10:11:37.953Z,98352.41
2024-01-26T10:14:04.702Z,98352.56
2024-01-26T10:16:31.332Z,98352.13
2024-01-26T10:18:58.181Z,98358.44
2024-01-26T10:21:25.316Z,98357.03
2024-01-26T10:23:52.687Z,98350.66
2024-01-26T10:26:19.638Z,98344.78
2024-01-26T10:28:47.161Z,98343.00
2024-01-26T10:31:13.820Z,98343.63
2024-01-26T10:33:40.631Z,98347.31
2024-01-26T10:36:07.403Z,98351.13
2024-01-26T10:38:34.250Z,98350.59
2024-01-26T10:41:00.933Z,98339.28
2024-01-26T10:43:27.795Z,98341.56
2024-01-26T10:45:54.443Z,98326.44
2024-01-26T10:48:21.165Z,98329.13
2024-01-26T10:50:48.173Z,98321.75
2024-01-26T10:53:14.978Z,98323.56
2024-01-26T10:55:41.628Z,98311.03
2024-01-26T10:58:08.340Z,98310.75
2024-01-26T11:00:34.991Z,98308.31
2024-01-26T11:03:01.725Z,98305.16
2024-01-26T11:05:28.464Z,98311.78
2024-01-26T11:07:55.105Z,98300.63
2024-01-26T11:10:21.738Z,98303.53
2024-01-26T11:12:48.429Z,98299.94
2024-01-26T11:15:15.354Z,98281.66
2024-01-26T11:17:42.109Z,98265.19
2024-01-26T11:20:08.840Z,98266.38
2024-01-26T11:22:35.482Z,98253.88
2024-01-26T11:25:02.109Z,98250.97
2024-01-26T11:27:28.791Z,98243.59
2024-01-26T11:29:55.485Z,98235.22
2024-01-26T11:32:22.152Z,98240.84
2024-01-26T11:34:48.861Z,98249.00
2024-01-26T11:37:15.648Z,98249.31
2024-01-26T11:39:42.483Z,98235.69
2024-01-26T11:42:09.326Z,98228.91
2024-01-26T11:44:36.120Z,98239.06
2024-01-26T11:47:03.374Z,98228.88
2024-01-26T11:49:30.278Z,98229.47
2024-01-26T11:51:57.076Z,98221.47
2024-01-26T11:54:24.013Z,98214.88
2024-01-26T11:56:51.069Z,98207.94
2024-01-26T11:59:17.819Z,98206.75
2024-01-26T12:01:44.725Z,98201.81
2024-01-26T12:04:11.538Z,98207.13
2024-01-26T12:06:38.314Z,98200.66
2024-01-26T12:09:05.292Z,98193.09
2024-01-26T12:11:34.584Z,98188.44
2024-01-26T12:14:01.218Z,98190.63
2024-01-26T12:16:27.847Z,98188.50
2024-01-26T12:18:57.275Z,98189.22
2024-01-26T12:21:25.635Z,98197.06
2024-01-26T12:23:52.354Z,98190.47
2024-01-26T12:26:20.318Z,98185.53
2024-01-26T12:28:46.960Z,98182.78
2024-01-26T12:31:13.602Z,98184.97
2024-01-26T12:33:40.383Z,98179.03
2024-01-26T12:36:07.829Z,98177.84
2024-01-26T12:38:34.668Z,98162.41
2024-01-26T12:41:01.440Z,98156.75
2024-01-26T12:43:28.092Z,98151.66
2024-01-26T12:45:54.723Z,98154.94
2024-01-26T12:48:21.502Z,98154.34
2024-01-26T12:50:48.214Z,98149.44
2024-01-26T12:53:14.857Z,98135.69
2024-01-26T12:55:41.544Z,98129.59
2024-01-26T12:58:08.168Z,98117.34
2024-01-26T13:00:34.949Z,98128.66
2024-01-26T13:03:01.732Z,98140.81
2024-01-26T13:05:28.557Z,98135.13
2024-01-26T13:07:55.216Z,98139.09
2024-01-26T13:10:21.942Z,98133.63
2024-01-26T13:12:48.567Z,98124.41
2024-01-26T13:15:15.357Z,98129.06
2024-01-26T13:17:42.282Z,98129.28
2024-01-26T13:20:16.194Z,98132.47
2024-01-26T13:22:46.582Z,98126.66
2024-01-26T13:25:13.242Z,98134.22
2024-01-26T13:27:39.905Z,98130.03
2024-01-26T13:30:06.648Z,98137.88
2024-01-26T13:32:33.445Z,98127.00
2024-01-26T13:35:00.312Z,98126.47
2024-01-26T13:37:27.020Z,98112.16
2024-01-26T13:39:53.663Z,98107.13
2024-01-26T13:42:20.481Z,98108.50
2024-01-26T13:44:47.229Z,98113.53
2024-01-26T13:47:13.904Z,98112.00
2024-01-26T13:49:40.718Z,98114.19
2024-01-26T13:52:07.573Z,98115.53
2024-01-26T13:54:34.189Z,98110.09
2024-01-26T13:57:00.889Z,98113.06
2024-01-26T13:59:27.660Z,98099.81
2024-01-26T14:01:54.340Z,98106.00
2024-01-26T14:04:21.135Z,98099.94
2024-01-26T14:06:48.092Z,98098.34
2024-01-26T14:09:14.894Z,98087.50
2024-01-26T14:11:41.589Z,98088.81
2024-01-26T14:14:08.496Z,98086.38
2024-01-26T14:16:35.222Z,98080.41
2024-01-26T14:19:02.104Z,98094.28
2024-01-26T14:21:28.986Z,98090.50
2024-01-26T14:23:55.703Z,98093.94
2024-01-26T14:26:22.373Z,98099.47
2024-01-26T14:28:49.060Z,98097.22
2024-01-26T14:31:15.688Z,98102.28
2024-01-26T14:33:42.519Z,98107.53
2024-01-26T14:36:09.417Z,98111.69
2024-01-26T14:38:36.203Z,98099.53
2024-01-26T14:41:02.853Z,98104.28
2024-01-26T14:43:30.932Z,98093.31
2024-01-26T14:45:58.753Z,98081.47
2024-01-26T14:48:25.510Z,98084.59
2024-01-26T14:50:52.271Z,98088.03
2024-01-26T14:53:19.025Z,98076.53
2024-01-26T14:55:45.633Z,98076.56
2024-01-26T14:58:12.329Z,98063.41
2024-01-26T15:00:39.039Z,98066.38
2024-01-26T15:03:05.801Z,98064.75
2024-01-26T15:05:32.619Z,98058.34
2024-01-26T15:07:59.262Z,98068.34
2024-01-26T15:10:25.914Z,98055.19
2024-01-26T15:12:52.644Z,98049.94
2024-01-26T15:15:19.804Z,98047.69
2024-01-26T15:17:46.870Z,98048.16
2024-01-26T15:20:13.723Z,98040.78
2024-01-26T15:22:40.410Z,98039.63
2024-01-26T15:25:07.065Z,98032.75
2024-01-26T15:27:33.737Z,98037.09
2024-01-26T15:30:00.489Z,98040.59
2024-01-26T15:32:27.186Z,98035.22
2024-01-26T15:34:53.919Z,98039.47
2024-01-26T15:37:20.575Z,98037.94
2024-01-26T15:39:47.213Z,98037.16
2024-01-26T15:42:14.070Z,98020.75
2024-01-26T15:44:40.780Z,98006.81
2024-01-26T15:47:07.422Z,97992.72
2024-01-26T15:49:34.258Z,97988.69
2024-01-26T15:52:01.140Z,97986.63
2024-01-26T15:54:27.876Z,97991.41
2024-01-26T15:56:54.773Z,98000.22
2024-01-26T15:59:21.404Z,98001.56
2024-01-26T16:01:48.030Z,97990.16
2024-01-26T16:04:14.813Z,98000.91
2024-01-26T16:06:41.518Z,97999.28
2024-01-26T16:09:08.210Z,98009.91
2024-01-26T16:11:34.935Z,98003.50
2024-01-26T16:14:01.571Z,97996.38
2024-01-26T16:16:28.217Z,97998.59
2024-01-26T16:18:55.264Z,97994.31
2024-01-26T16:21:22.037Z,98004.34
2024-01-26T16:23:48.763Z,98010.03
2024-01-26T16:26:15.521Z,98002.06
2024-01-26T16:28:42.150Z,98001.75
2024-01-26T16:31:08.778Z,98007.06
2024-01-26T16:33:35.606Z,98007.25
2024-01-26T16:36:02.402Z,98003.97
2024-01-26T16:38:29.217Z,98009.41
2024-01-26T16:40:56.036Z,98002.88
2024-01-26T16:43:22.724Z,97997.16
2024-01-26T16:45:49.357Z,97998.97
2024-01-26T16:48:16.410Z,97989.97
2024-01-26T16:50:43.253Z,98003.38
2024-01-26T16:53:09.917Z,97998.63
2024-01-26T16:55:36.611Z,97994.25
2024-01-26T16:58:03.294Z,97995.53
2024-01-26T17:00:30.024Z,97999.88
2024-01-26T17:02:56.819Z,97993.63
2024-01-26T17:05:23.555Z,97989.00
2024-01-26T17:07:50.309Z,98001.97
2024-01-26T17:10:17.003Z,97992.09
2024-01-26T17:12:43.635Z,97988.81
2024-01-26T17:15:10.270Z,97985.28
2024-01-26T17:17:37.031Z,97973.91
2024-01-26T17:20:03.733Z,97969.34
2024-01-26T17:22:30.388Z,97956.88
2024-01-26T17:24:57.119Z,97959.50
2024-01-26T17:27:23.840Z,97947.41
2024-01-26T17:29:50.594Z,97951.84
2024-01-26T17:32:17.319Z,97960.47
2024-01-26T17:34:44.031Z,97957.19
2024-01-26T17:37:10.745Z,97960.69
2024-01-26T17:39:47.993Z,97951.88
2024-01-26T17:42:23.305Z,97946.03
2024-01-26T17:44:50.063Z,97953.22
2024-01-26T17:47:16.767Z,97942.34
2024-01-26T17:49:43.613Z,97945.13
2024-01-26T17:52:10.442Z,97938.88
2024-01-26T17:54:37.068Z,97933.59
2024-01-26T17:57:03.741Z,97935.88
2024-01-26T17:59:30.481Z,97935.56
2024-01-26T18:01:57.107Z,97932.56
2024-01-26T18:04:23.848Z,97929.16
2024-01-26T18:06:50.604Z,97934.75
2024-01-26T18:09:17.320Z,97936.00
2024-01-26T18:11:43.991Z,97940.41
2024-01-26T18:14:10.805Z,97944.34
2024-01-26T18:16:37.453Z,97941.41
2024-01-26T18:19:04.211Z,97936.56
2024-01-26T18:21:30.962Z,97936.25
2024-01-26T18:23:57.671Z,97943.44
2024-01-26T18:26:24.309Z,97948.66
2024-01-26T18:28:51.070Z,97948.84
2024-01-26T18:31:19.318Z,97952.59
2024-01-26T18:33:46.843Z,97964.34
2024-01-26T18:36:13.643Z,97943.34
2024-01-26T18:38:40.355Z,97959.59
2024-01-26T18:41:07.029Z,97951.94
2024-01-26T18:43:33.880Z,97957.56
2024-01-26T18:46:00.499Z,97965.22
2024-01-26T18:48:27.207Z,97969.56
2024-01-26T18:50:53.947Z,97964.81
2024-01-26T18:53:20.602Z,97966.91
2024-01-26T18:55:47.290Z,97960.97
2024-01-26T18:58:14.140Z,97953.22
2024-01-26T19:00:40.992Z,97953.75
2024-01-26T19:03:08.023Z,97967.34
2024-01-26T19:05:35.880Z,97978.47
2024-01-26T19:08:02.889Z,97974.91
2024-01-26T19:10:29.591Z,97958.69
2024-01-26T19:12:56.292Z,97973.59
2024-01-26T19:15:24.028Z,97983.03
2024-01-26T19:17:50.836Z,97978.78
2024-01-26T19:20:17.843Z,97971.53
2024-01-26T19:22:45.186Z,97975.50
2024-01-26T19:25:12.074Z,97978.00
2024-01-26T19:27:39.014Z,97966.28
2024-01-26T19:30:05.760Z,97973.78
2024-01-26T19:32:32.448Z,97961.16
2024-01-26T19:34:59.245Z,97946.63
2024-01-26T19:37:25.898Z,97936.50
2024-01-26T19:39:52.530Z,97950.38
2024-01-26T19:42:19.270Z,97932.84
2024-01-26T19:44:45.982Z,97941.81
2024-01-26T19:47:12.621Z,97926.41
2024-01-26T19:49:39.410Z,97926.59
2024-01-26T19:52:06.132Z,97916.75
2024-01-26T19:54:32.833Z,97909.16
2024-01-26T19:56:59.555Z,97924.09
2024-01-26T19:59:26.202Z,97922.34
2024-01-26T20:01:52.851Z,97919.88
2024-01-26T20:04:19.551Z,97914.13
2024-01-26T20:06:46.385Z,97905.72
2024-01-26T20:09:13.718Z,97889.94
2024-01-26T20:11:40.633Z,97892.38
2024-01-26T20:14:07.314Z,97890.75
2024-01-26T20:16:33.977Z,97903.06
2024-01-26T20:19:00.808Z,97910.97
2024-01-26T20:21:27.717Z,97905.16
2024-01-26T20:23:54.456Z,97907.81
2024-01-26T20:26:21.370Z,97920.69
2024-01-26T20:28:49.975Z,97926.34
2024-01-26T20:31:16.657Z,97930.28
2024-01-26T20:33:43.798Z,97924.41
2024-01-26T20:36:10.863Z,97929.41
2024-01-26T20:38:37.621Z,97920.09
2024-01-26T20:41:04.334Z,97920.38
2024-01-26T20:43:30.957Z,97941.63
2024-01-26T20:45:57.587Z,97942.09
2024-01-26T20:48:24.407Z,97940.72
2024-01-26T20:50:51.230Z,97946.22
2024-01-26T20:53:18.000Z,97940.69
2024-01-26T20:55:44.728Z,97946.88
2024-01-26T20:58:11.365Z,97946.75
2024-01-26T21:00:38.121Z,97943.72
2024-01-26T21:03:04.894Z,97958.28
2024-01-26T21:05:31.584Z,97954.28
2024-01-26T21:07:58.242Z,97955.53
2024-01-26T21:10:24.940Z,97958.66
2024-01-26T21:12:51.552Z,97977.47
2024-01-26T21:15:18.233Z,97977.63
2024-01-26T21:17:45.023Z,97978.19
2024-01-26T21:20:11.790Z,97959.78
2024-01-26T21:22:39.920Z,97967.34
2024-01-26T21:25:08.690Z,97959.53
2024-01-26T21:27:35.335Z,97949.50
2024-01-26T21:30:02.133Z,97936.31
2024-01-26T21:32:28.883Z,97939.50
2024-01-26T21:34:55.693Z,97939.97
2024-01-26T21:37:22.448Z,97960.38
2024-01-26T21:39:49.215Z,97961.84
2024-01-26T21:42:15.970Z,97952.19
2024-01-26T21:44:42.832Z,97958.72
2024-01-26T21:47:12.064Z,97972.38
2024-01-26T21:49:38.757Z,97981.31
2024-01-26T21:52:05.827Z,97974.69
2024-01-26T21:54:32.749Z,97991.72
2024-01-26T21:56:59.492Z,97985.78
2024-01-26T21:59:26.156Z,97999.69
2024-01-26T22:01:52.873Z,97988.09
2024-01-26T22:04:19.585Z,97994.28
2024-01-26T22:06:46.327Z,97997.38
2024-01-26T22:09:13.220Z,98005.03
2024-01-26T22:11:39.960Z,98014.97
2024-01-26T22:14:06.586Z,98031.28
2024-01-26T22:16:33.315Z,98038.28
2024-01-26T22:19:00.048Z,98031.41
2024-01-26T22:21:26.810Z,98034.47
2024-01-26T22:23:53.554Z,98049.28
2024-01-26T22:26:20.217Z,98054.72
2024-01-26T22:28:47.030Z,98052.13
2024-01-26T22:31:13.714Z,98048.38
2024-01-26T22:33:40.555Z,98072.13
2024-01-26T22:36:07.291Z,98085.38
2024-01-26T22:38:33.972Z,98069.03
2024-01-26T22:41:00.599Z,98080.78
2024-01-26T22:43:27.232Z,98073.44
2024-01-26T22:45:56.257Z,98068.81
2024-01-26T22:48:23.932Z,98084.25
2024-01-26T22:50:50.649Z,98090.56
2024-01-26T22:53:17.373Z,98091.44
2024-01-26T22:55:43.997Z,98096.72
2024-01-26T22:58:10.614Z,98093.59
2024-01-26T23:00:37.361Z,98098.66
2024-01-26T23:03:04.199Z,98114.13
2024-01-26T23:05:30.952Z,98117.91
2024-01-26T23:07:57.681Z,98102.97
2024-01-26T23:10:24.306Z,98134.19
2024-01-26T23:12:50.944Z,98114.34
2024-01-26T23:15:17.667Z,98111.84
2024-01-26T23:17:44.547Z,98103.84
2024-01-26T23:20:11.343Z,98099.28
2024-01-26T23:22:38.052Z,98086.94
2024-01-26T23:25:04.680Z,98096.38
2024-01-26T23:27:31.372Z,98096.97
2024-01-26T23:29:58.113Z,98117.78
2024-01-26T23:32:24.734Z,98121.03
2024-01-26T23:34:51.443Z,98132.34
2024-01-26T23:37:18.242Z,98125.66
2024-01-26T23:39:44.873Z,98153.72
2024-01-26T23:42:11.553Z,98179.28
2024-01-26T23:44:38.246Z,98181.19
2024-01-26T23:47:04.882Z,98185.41
2024-01-26T23:49:31.733Z,98191.13
2024-01-26T23:51:59.008Z,98198.09
2024-01-26T23:54:25.654Z,98215.06
2024-01-26T23:56:52.295Z,98213.91
2024-01-26T23:59:19.070Z,98208.34
